createdAt,value
2022-08-24T00:02:07.762Z,24.27
2022-08-24T00:04:42.235Z,25.35
2022-08-24T00:07:21.378Z,26.55
2022-08-24T00:09:56.450Z,26.52
2022-08-24T00:12:26.112Z,26.20
2022-08-24T00:14:55.217Z,25.48
2022-08-24T00:17:25.752Z,26.40
2022-08-24T00:19:54.743Z,25.67
2022-08-24T00:22:23.479Z,25.77
2022-08-24T00:24:52.281Z,26.75
2022-08-24T00:27:21.354Z,24.35
2022-08-24T00:29:50.092Z,25.45
2022-08-24T00:32:18.953Z,24.17
2022-08-24T00:34:59.248Z,24.50
2022-08-24T00:37:29.895Z,22.58
2022-08-24T00:39:59.515Z,22.60
2022-08-24T00:42:28.601Z,21.77
2022-08-24T00:44:58.389Z,20.52
2022-08-24T00:47:33.268Z,21.00
2022-08-24T00:50:07.151Z,20.70
2022-08-24T00:52:42.094Z,20.20
2022-08-24T00:55:17.464Z,19.77
2022-08-24T00:57:50.634Z,19.38
2022-08-24T01:00:23.733Z,19.73
2022-08-24T01:02:55.732Z,18.83
2022-08-24T01:05:26.603Z,19.48
2022-08-24T01:07:55.647Z,19.52
2022-08-24T01:10:28.476Z,20.92
2022-08-24T01:13:01.385Z,22.73
2022-08-24T01:15:31.982Z,22.45
2022-08-24T01:18:20.326Z,24.17
2022-08-24T01:20:57.643Z,23.38
2022-08-24T01:23:37.157Z,26.45
2022-08-24T01:26:07.215Z,27.48
2022-08-24T01:28:39.983Z,27.38
2022-08-24T01:31:10.244Z,29.17
2022-08-24T01:33:39.420Z,30.65
2022-08-24T01:36:16.723Z,31.20
2022-08-24T01:38:48.094Z,32.65
2022-08-24T01:41:17.229Z,32.47
2022-08-24T01:43:46.433Z,33.65
2022-08-24T01:46:16.224Z,34.95
2022-08-24T01:48:45.743Z,35.85
2022-08-24T01:51:14.947Z,37.28
2022-08-24T01:53:43.977Z,37.85
2022-08-24T01:56:14.444Z,35.67
2022-08-24T01:58:46.087Z,36.13
2022-08-24T02:01:16.453Z,34.63
2022-08-24T02:03:46.159Z,34.03
2022-08-24T02:06:19.005Z,38.80
2022-08-24T02:08:48.195Z,37.85
2022-08-24T02:11:19.400Z,36.78
2022-08-24T02:13:48.307Z,36.95
2022-08-24T02:16:17.460Z,37.95
2022-08-24T02:18:46.929Z,34.58
2022-08-24T02:21:16.958Z,32.92
2022-08-24T02:23:46.024Z,32.00
2022-08-24T02:26:15.136Z,30.90
2022-08-24T02:28:45.741Z,29.30
2022-08-24T02:31:16.735Z,32.33
2022-08-24T02:33:47.299Z,30.75
2022-08-24T02:36:25.553Z,30.60
2022-08-24T02:38:55.695Z,31.90
2022-08-24T02:41:25.775Z,32.25
2022-08-24T02:43:58.115Z,32.80
2022-08-24T02:46:29.817Z,33.10
2022-08-24T02:49:10.487Z,33.45
2022-08-24T02:51:45.384Z,33.65
2022-08-24T02:54:19.835Z,34.38
2022-08-24T02:56:52.120Z,34.80
2022-08-24T02:59:24.777Z,35.38
2022-08-24T03:01:55.074Z,35.67
2022-08-24T03:04:26.363Z,34.72
2022-08-24T03:06:55.304Z,36.67
2022-08-24T03:09:24.949Z,35.88
2022-08-24T03:11:59.361Z,36.65
2022-08-24T03:14:29.851Z,37.28
2022-08-24T03:16:58.861Z,36.40
2022-08-24T03:19:27.931Z,36.03
2022-08-24T03:21:57.667Z,36.97
2022-08-24T03:24:28.341Z,38.17
2022-08-24T03:26:57.703Z,37.00
2022-08-24T03:29:33.761Z,36.17
2022-08-24T03:32:05.189Z,36.53
2022-08-24T03:34:34.467Z,37.20
2022-08-24T03:37:03.869Z,35.90
2022-08-24T03:39:33.075Z,36.20
2022-08-24T03:42:02.089Z,35.65
2022-08-24T03:44:32.581Z,35.10
2022-08-24T03:47:01.845Z,34.92
2022-08-24T03:49:33.067Z,37.92
2022-08-24T03:52:02.472Z,36.75
2022-08-24T03:54:31.645Z,37.35
2022-08-24T03:57:00.680Z,36.03
2022-08-24T03:59:29.662Z,35.43
2022-08-24T04:02:02.209Z,37.78
2022-08-24T04:04:31.817Z,35.78
2022-08-24T04:07:01.029Z,35.85
2022-08-24T04:09:30.322Z,35.47
2022-08-24T04:11:59.793Z,36.00
2022-08-24T04:14:29.175Z,34.90
2022-08-24T04:17:08.530Z,35.63
2022-08-24T04:19:57.612Z,34.38
2022-08-24T04:22:34.280Z,34.08
2022-08-24T04:25:09.167Z,33.63
2022-08-24T04:27:40.463Z,37.25
2022-08-24T04:30:14.079Z,38.28
2022-08-24T04:33:05.549Z,37.22
2022-08-24T04:35:38.940Z,35.47
2022-08-24T04:38:08.572Z,32.55
2022-08-24T04:40:40.559Z,31.05
2022-08-24T04:43:10.412Z,29.63
2022-08-24T04:45:40.686Z,27.23
2022-08-24T04:48:11.387Z,28.00
2022-08-24T04:50:42.701Z,26.90
2022-08-24T04:53:13.565Z,26.25
2022-08-24T04:55:49.098Z,26.00
2022-08-24T04:58:20.466Z,23.35
2022-08-24T05:00:49.701Z,21.30
2022-08-24T05:03:20.324Z,20.75
2022-08-24T05:05:51.368Z,21.05
2022-08-24T05:08:21.740Z,19.88
2022-08-24T05:10:52.348Z,19.50
2022-08-24T05:13:22.552Z,16.77
2022-08-24T05:15:51.428Z,15.15
2022-08-24T05:18:22.219Z,15.45
2022-08-24T05:20:51.040Z,16.13
2022-08-24T05:23:20.802Z,16.05
2022-08-24T05:25:50.054Z,15.57
2022-08-24T05:28:19.253Z,17.48
2022-08-24T05:30:48.333Z,16.30
2022-08-24T05:33:21.945Z,16.48
2022-08-24T05:35:50.906Z,17.35
2022-08-24T05:38:19.559Z,17.48
2022-08-24T05:40:48.749Z,16.70
2022-08-24T05:43:17.950Z,18.63
2022-08-24T05:45:47.754Z,18.70
2022-08-24T05:48:16.709Z,18.65
2022-08-24T05:51:19.717Z,18.38
2022-08-24T05:53:58.009Z,18.27
2022-08-24T05:56:32.084Z,19.60
2022-08-24T05:59:02.663Z,20.27
2022-08-24T06:01:31.694Z,21.45
2022-08-24T06:04:01.564Z,23.15
2022-08-24T06:06:32.767Z,22.35
2022-08-24T06:09:02.844Z,22.23
2022-08-24T06:11:35.298Z,21.98
2022-08-24T06:14:08.286Z,21.23
2022-08-24T06:16:50.817Z,24.25
2022-08-24T06:19:20.846Z,20.48
2022-08-24T06:21:53.657Z,19.77
2022-08-24T06:24:44.677Z,18.30
2022-08-24T06:27:22.900Z,18.38
2022-08-24T06:29:56.371Z,17.77
2022-08-24T06:32:44.253Z,18.38
2022-08-24T06:35:23.364Z,19.55
2022-08-24T06:37:54.430Z,17.63
2022-08-24T06:40:24.832Z,17.15
2022-08-24T06:42:54.085Z,17.00
2022-08-24T06:45:48.371Z,18.40
2022-08-24T06:48:19.794Z,16.58
2022-08-24T06:50:49.799Z,17.55
2022-08-24T06:53:20.458Z,17.10
2022-08-24T06:55:51.524Z,16.77
2022-08-24T06:58:21.649Z,15.43
2022-08-24T07:00:51.641Z,15.65
2022-08-24T07:03:22.939Z,15.10
2022-08-24T07:06:08.151Z,14.30
2022-08-24T07:08:41.886Z,13.48
2022-08-24T07:11:14.402Z,13.18
2022-08-24T07:13:44.777Z,11.93
2022-08-24T07:16:14.537Z,13.75
2022-08-24T07:18:49.716Z,14.23
2022-08-24T07:21:22.334Z,13.50
2022-08-24T07:23:57.370Z,13.52
2022-08-24T07:26:29.899Z,12.32
2022-08-24T07:29:05.446Z,13.43
2022-08-24T07:31:42.536Z,13.77
2022-08-24T07:34:37.541Z,13.30
2022-08-24T07:37:08.325Z,13.95
2022-08-24T07:39:42.512Z,14.63
2022-08-24T07:42:15.012Z,13.77
2022-08-24T07:44:48.022Z,14.32
2022-08-24T07:50:12.189Z,14.55
2022-08-24T07:52:42.679Z,12.57
2022-08-24T07:55:14.308Z,13.60
2022-08-24T07:57:45.209Z,11.65
2022-08-24T08:00:19.639Z,12.25
2022-08-24T08:02:53.284Z,13.88
2022-08-24T08:05:25.242Z,13.35
2022-08-24T08:07:55.879Z,13.75
2022-08-24T08:10:30.797Z,14.43
2022-08-24T08:13:00.065Z,13.90
2022-08-24T08:15:29.273Z,12.68
2022-08-24T08:18:06.937Z,12.48
2022-08-24T08:20:40.423Z,12.32
2022-08-24T08:23:42.085Z,11.52
2022-08-24T08:26:21.988Z,11.38
2022-08-24T08:29:04.398Z,11.45
2022-08-24T08:31:35.481Z,12.32
2022-08-24T08:34:06.304Z,11.65
2022-08-24T08:36:36.262Z,10.32
2022-08-24T08:39:05.813Z,12.00
2022-08-24T08:42:20.410Z,11.43
2022-08-24T08:45:03.950Z,12.30
2022-08-24T08:48:15.665Z,11.48
2022-08-24T08:51:00.549Z,11.13
2022-08-24T08:54:02.987Z,10.90
2022-08-24T08:56:42.217Z,10.32
2022-08-24T08:59:29.713Z,9.63
2022-08-24T09:02:15.424Z,8.85
2022-08-24T09:05:24.534Z,8.95
2022-08-24T09:08:03.723Z,8.45
2022-08-24T09:10:54.641Z,8.05
2022-08-24T09:13:49.491Z,8.63
2022-08-24T09:16:55.562Z,9.43
2022-08-24T09:19:34.019Z,9.15
2022-08-24T09:22:12.101Z,8.52
2022-08-24T09:24:59.822Z,7.63
2022-08-24T09:27:54.593Z,7.15
2022-08-24T09:30:26.286Z,7.03
2022-08-24T09:33:20.823Z,5.88
2022-08-24T09:36:09.308Z,6.78
2022-08-24T09:39:00.245Z,6.43
2022-08-24T09:42:05.994Z,6.13
2022-08-24T09:45:14.482Z,5.80
2022-08-24T09:48:16.028Z,5.25
2022-08-24T09:50:59.207Z,5.38
2022-08-24T09:54:03.646Z,5.43
2022-08-24T09:57:09.278Z,6.57
2022-08-24T10:00:01.164Z,4.82
2022-08-24T10:02:44.853Z,5.20
2022-08-24T10:05:36.405Z,5.70
2022-08-24T10:08:15.748Z,5.25
2022-08-24T10:10:53.333Z,5.30
2022-08-24T10:13:29.575Z,3.95
2022-08-24T10:16:20.575Z,5.32
2022-08-24T10:19:01.280Z,4.63
2022-08-24T10:21:42.380Z,5.63
2022-08-24T10:24:35.999Z,5.50
2022-08-24T10:27:32.656Z,5.03
2022-08-24T10:30:28.787Z,4.72
2022-08-24T10:33:13.433Z,4.22
2022-08-24T10:35:59.789Z,4.78
2022-08-24T10:38:52.960Z,4.20
2022-08-24T10:41:53.310Z,4.45
2022-08-24T10:44:46.987Z,4.90
2022-08-24T10:47:22.796Z,4.25
2022-08-24T10:50:17.212Z,3.72
2022-08-24T10:53:07.416Z,3.40
2022-08-24T10:55:39.367Z,4.05
2022-08-24T10:58:28.794Z,4.18
2022-08-24T11:01:12.785Z,3.92
2022-08-24T11:03:50.225Z,3.97
2022-08-24T11:06:21.036Z,4.38
2022-08-24T11:08:55.576Z,4.10
2022-08-24T11:11:29.741Z,4.40
2022-08-24T11:14:00.723Z,4.30
2022-08-24T11:16:33.524Z,4.32
2022-08-24T11:19:05.328Z,4.57
2022-08-24T11:21:54.593Z,4.28
2022-08-24T11:24:39.605Z,3.92
2022-08-24T11:27:19.670Z,4.50
2022-08-24T11:30:05.054Z,4.10
2022-08-24T11:32:40.478Z,4.40
2022-08-24T11:35:18.554Z,4.68
2022-08-24T11:37:48.393Z,4.78
2022-08-24T11:40:18.721Z,4.10
2022-08-24T11:43:17.691Z,4.25
2022-08-24T11:45:56.988Z,3.90
2022-08-24T11:48:36.235Z,4.13
2022-08-24T11:51:12.751Z,4.15
2022-08-24T11:53:54.159Z,4.20
2022-08-24T11:56:27.293Z,4.40
2022-08-24T11:59:04.107Z,4.70
2022-08-24T12:01:44.852Z,4.22
2022-08-24T12:04:26.858Z,4.00
2022-08-24T12:07:02.192Z,3.97
2022-08-24T12:09:46.790Z,4.25
2022-08-24T12:12:24.066Z,3.92
2022-08-24T12:15:01.865Z,4.65
2022-08-24T12:17:36.411Z,3.88
2022-08-24T12:20:16.131Z,3.70
2022-08-24T12:22:45.642Z,4.70
2022-08-24T12:25:29.254Z,4.30
2022-08-24T12:27:59.605Z,3.85
2022-08-24T12:30:30.416Z,3.90
2022-08-24T12:33:04.468Z,4.35
2022-08-24T12:35:37.746Z,4.00
2022-08-24T12:38:13.014Z,3.95
2022-08-24T12:40:44.483Z,3.92
2022-08-24T12:43:19.943Z,4.82
2022-08-24T12:45:51.391Z,4.53
2022-08-24T12:48:24.515Z,4.15
2022-08-24T12:51:10.750Z,4.35
2022-08-24T12:54:18.132Z,4.25
2022-08-24T12:57:06.610Z,4.97
2022-08-24T12:59:41.736Z,4.57
2022-08-24T13:02:34.320Z,4.57
2022-08-24T13:05:15.280Z,4.45
2022-08-24T13:07:47.442Z,3.63
2022-08-24T13:10:38.962Z,4.60
2022-08-24T13:13:20.954Z,4.70
2022-08-24T13:16:01.898Z,4.63
2022-08-24T13:19:07.721Z,4.07
2022-08-24T13:21:46.046Z,4.78
2022-08-24T13:24:53.369Z,4.53
2022-08-24T13:27:47.034Z,4.38
2022-08-24T13:30:33.821Z,4.38
2022-08-24T13:33:07.101Z,4.05
2022-08-24T13:35:56.018Z,4.18
2022-08-24T13:38:52.129Z,4.10
2022-08-24T13:41:43.360Z,4.68
2022-08-24T13:44:23.850Z,4.57
2022-08-24T13:47:04.149Z,4.28
2022-08-24T13:49:50.602Z,4.75
2022-08-24T13:52:29.892Z,4.38
2022-08-24T13:55:14.924Z,4.53
2022-08-24T13:57:46.404Z,3.95
2022-08-24T14:00:41.913Z,4.85
2022-08-24T14:03:30.400Z,4.78
2022-08-24T14:06:21.410Z,4.65
2022-08-24T14:09:10.877Z,4.78
2022-08-24T14:12:09.157Z,4.00
2022-08-24T14:14:55.748Z,4.43
2022-08-24T14:17:49.057Z,4.65
2022-08-24T14:21:03.408Z,4.75
2022-08-24T14:23:50.200Z,4.22
2022-08-24T14:27:11.018Z,4.20
2022-08-24T14:30:35.525Z,4.00
2022-08-24T14:33:16.294Z,4.03
2022-08-24T14:36:11.193Z,3.85
2022-08-24T14:38:53.780Z,3.63
2022-08-24T14:41:32.058Z,4.55
2022-08-24T14:44:09.194Z,4.60
2022-08-24T14:46:48.212Z,3.70
2022-08-24T14:49:23.224Z,4.47
2022-08-24T14:52:11.422Z,4.80
2022-08-24T14:54:56.574Z,4.15
2022-08-24T14:57:46.231Z,3.88
2022-08-24T15:00:20.516Z,4.05
2022-08-24T15:03:16.862Z,4.00
2022-08-24T15:06:25.215Z,4.28
2022-08-24T15:08:52.401Z,4.93
2022-08-24T15:11:26.460Z,4.47
2022-08-24T15:13:58.127Z,3.80
2022-08-24T15:16:53.418Z,4.10
2022-08-24T15:19:34.316Z,4.05
2022-08-24T15:22:07.698Z,3.70
2022-08-24T15:24:43.863Z,4.50
2022-08-24T15:27:20.230Z,4.35
2022-08-24T15:29:53.678Z,4.38
2022-08-24T15:32:27.829Z,4.28
2022-08-24T15:34:59.501Z,4.60
2022-08-24T15:37:31.829Z,4.63
2022-08-24T15:40:02.138Z,4.10
2022-08-24T15:42:35.057Z,4.22
2022-08-24T15:45:06.445Z,4.45
2022-08-24T15:47:37.408Z,4.13
2022-08-24T15:50:20.415Z,4.25
2022-08-24T15:52:55.141Z,4.75
2022-08-24T15:55:48.885Z,4.65
2022-08-24T15:58:32.250Z,4.80
2022-08-24T16:01:37.063Z,4.80
2022-08-24T16:04:08.202Z,4.68
2022-08-24T16:06:42.369Z,4.88
2022-08-24T16:09:16.081Z,4.47
2022-08-24T16:11:49.707Z,5.45
2022-08-24T16:14:28.615Z,4.65
2022-08-24T16:16:59.285Z,4.20
2022-08-24T16:19:30.272Z,4.75
2022-08-24T16:22:03.899Z,4.82
2022-08-24T16:24:36.074Z,4.75
2022-08-24T16:27:08.408Z,4.82
2022-08-24T16:29:51.096Z,5.22
2022-08-24T16:32:31.493Z,4.85
2022-08-24T16:35:18.076Z,5.50
2022-08-24T16:37:48.389Z,4.90
2022-08-24T16:40:17.559Z,5.68
2022-08-24T16:42:46.912Z,5.72
2022-08-24T16:45:19.059Z,5.28
2022-08-24T16:47:48.620Z,5.70
2022-08-24T16:50:19.163Z,6.30
2022-08-24T16:52:50.222Z,6.18
2022-08-24T16:55:19.360Z,5.93
2022-08-24T16:57:48.377Z,6.40
2022-08-24T17:00:22.079Z,6.28
2022-08-24T17:02:51.215Z,5.90
2022-08-24T17:05:20.424Z,5.80
2022-08-24T17:07:51.858Z,5.97
2022-08-24T17:10:23.254Z,6.30
2022-08-24T17:12:52.075Z,5.85
2022-08-24T17:15:21.961Z,6.28
2022-08-24T17:18:01.636Z,6.60
2022-08-24T17:20:30.872Z,6.45
2022-08-24T17:23:01.369Z,5.35
2022-08-24T17:25:31.334Z,5.80
2022-08-24T17:28:01.389Z,5.57
2022-08-24T17:30:30.886Z,5.55
2022-08-24T17:33:00.769Z,5.55
2022-08-24T17:35:29.810Z,6.00
2022-08-24T17:38:01.961Z,5.97
2022-08-24T17:40:32.014Z,5.40
2022-08-24T17:43:01.209Z,5.57
2022-08-24T17:45:30.278Z,6.03
2022-08-24T17:47:59.069Z,6.03
2022-08-24T17:50:28.576Z,6.53
2022-08-24T17:53:06.728Z,6.03
2022-08-24T17:55:37.292Z,5.90
2022-08-24T17:58:06.026Z,6.22
2022-08-24T18:00:34.988Z,6.93
2022-08-24T18:03:03.938Z,5.90
2022-08-24T18:05:34.590Z,6.65
2022-08-24T18:08:04.419Z,6.88
2022-08-24T18:10:34.346Z,6.90
2022-08-24T18:13:05.413Z,6.10
2022-08-24T18:15:36.601Z,6.97
2022-08-24T18:18:08.933Z,6.57
2022-08-24T18:20:40.659Z,6.10
2022-08-24T18:23:11.964Z,6.10
2022-08-24T18:25:47.354Z,7.10
2022-08-24T18:28:21.511Z,7.63
2022-08-24T18:30:50.447Z,7.22
2022-08-24T18:33:19.367Z,7.75
2022-08-24T18:35:48.601Z,8.27
2022-08-24T18:38:18.144Z,8.23
2022-08-24T18:40:52.843Z,8.60
2022-08-24T18:43:25.130Z,8.23
2022-08-24T18:45:54.581Z,8.27
2022-08-24T18:48:23.833Z,8.80
2022-08-24T18:50:53.335Z,8.80
2022-08-24T18:53:24.833Z,9.15
2022-08-24T18:55:54.454Z,8.13
2022-08-24T18:58:24.890Z,9.30
2022-08-24T19:00:53.722Z,8.73
2022-08-24T19:03:27.181Z,9.52
2022-08-24T19:05:56.730Z,9.55
2022-08-24T19:08:25.614Z,8.85
2022-08-24T19:10:54.736Z,9.75
2022-08-24T19:13:25.302Z,8.75
2022-08-24T19:15:54.295Z,7.93
2022-08-24T19:18:23.997Z,8.13
2022-08-24T19:20:55.966Z,9.15
2022-08-24T19:23:27.719Z,11.18
2022-08-24T19:25:58.169Z,14.38
2022-08-24T19:28:29.412Z,11.95
2022-08-24T19:31:02.268Z,11.48
2022-08-24T19:33:36.200Z,11.82
2022-08-24T19:36:06.203Z,14.13
2022-08-24T19:38:35.191Z,14.20
2022-08-24T19:41:11.170Z,14.70
2022-08-24T19:43:56.847Z,13.82
2022-08-24T19:46:26.055Z,12.82
2022-08-24T19:48:55.166Z,13.95
2022-08-24T19:51:23.767Z,14.30
2022-08-24T19:53:52.914Z,17.90
2022-08-24T19:56:21.808Z,11.70
2022-08-24T19:59:00.709Z,12.05
2022-08-24T20:01:34.648Z,11.68
2022-08-24T20:04:06.298Z,12.45
2022-08-24T20:06:36.937Z,10.95
2022-08-24T20:09:06.271Z,12.48
2022-08-24T20:11:35.487Z,12.48
2022-08-24T20:14:06.170Z,14.18
2022-08-24T20:16:38.370Z,14.05
2022-08-24T20:19:07.586Z,14.27
2022-08-24T20:21:37.696Z,13.00
2022-08-24T20:24:07.036Z,13.75
2022-08-24T20:26:40.205Z,14.10
2022-08-24T20:29:11.372Z,12.93
2022-08-24T20:31:41.714Z,13.90
2022-08-24T20:34:10.803Z,12.40
2022-08-24T20:36:41.348Z,12.27
2022-08-24T20:39:13.952Z,13.10
2022-08-24T20:41:42.777Z,14.15
2022-08-24T20:44:13.137Z,12.60
2022-08-24T20:46:42.746Z,13.55
2022-08-24T20:49:16.878Z,13.70
2022-08-24T20:51:45.722Z,13.15
2022-08-24T20:54:15.487Z,12.98
2022-08-24T20:56:45.527Z,13.80
2022-08-24T20:59:18.261Z,13.55
2022-08-24T21:01:48.264Z,14.40
2022-08-24T21:04:16.900Z,12.85
2022-08-24T21:06:46.161Z,13.60
2022-08-24T21:09:19.422Z,13.27
2022-08-24T21:11:48.281Z,14.13
2022-08-24T21:14:18.551Z,13.57
2022-08-24T21:16:47.376Z,13.93
2022-08-24T21:19:17.724Z,14.90
2022-08-24T21:21:48.151Z,15.00
2022-08-24T21:24:17.127Z,14.23
2022-08-24T21:26:46.517Z,15.38
2022-08-24T21:29:15.394Z,14.10
2022-08-24T21:32:05.777Z,15.05
2022-08-24T21:34:42.631Z,13.93
2022-08-24T21:37:12.475Z,13.98
2022-08-24T21:39:41.095Z,13.95
2022-08-24T21:42:10.234Z,15.05
2022-08-24T21:44:38.835Z,15.27
2022-08-24T21:47:08.999Z,14.23
2022-08-24T21:49:37.629Z,15.30
2022-08-24T21:52:06.963Z,14.80
2022-08-24T21:54:36.201Z,15.05
2022-08-24T21:57:06.227Z,14.82
2022-08-24T21:59:35.275Z,14.13
2022-08-24T22:02:04.101Z,12.85
2022-08-24T22:04:34.677Z,14.82
2022-08-24T22:07:03.655Z,13.75
2022-08-24T22:09:32.472Z,14.07
2022-08-24T22:12:01.539Z,13.82
2022-08-24T22:14:30.340Z,13.70
2022-08-24T22:16:58.908Z,12.98
2022-08-24T22:19:27.566Z,13.30
2022-08-24T22:21:57.518Z,14.27
2022-08-24T22:24:26.230Z,14.38
2022-08-24T22:26:55.129Z,13.35
2022-08-24T22:29:23.839Z,13.07
2022-08-24T22:31:52.846Z,14.20
2022-08-24T22:34:21.599Z,13.43
2022-08-24T22:36:52.710Z,14.07
2022-08-24T22:39:24.428Z,13.98
2022-08-24T22:41:53.318Z,13.40
2022-08-24T22:44:22.468Z,13.10
2022-08-24T22:46:53.454Z,14.25
2022-08-24T22:49:24.843Z,13.68
2022-08-24T22:51:54.139Z,14.13
2022-08-24T22:54:26.232Z,13.43
2022-08-24T22:56:57.634Z,12.88
2022-08-24T22:59:28.511Z,13.80
2022-08-24T23:01:58.665Z,13.18
2022-08-24T23:04:32.065Z,12.95
2022-08-24T23:07:01.910Z,12.70
2022-08-24T23:09:44.023Z,13.48
2022-08-24T23:12:16.056Z,12.75
2022-08-24T23:14:44.836Z,11.98
2022-08-24T23:17:13.680Z,12.32
2022-08-24T23:19:59.926Z,11.38
2022-08-24T23:22:31.205Z,11.98
2022-08-24T23:25:01.640Z,11.85
2022-08-24T23:27:32.912Z,11.43
2022-08-24T23:30:09.393Z,11.32
2022-08-24T23:32:38.311Z,11.20
2022-08-24T23:35:08.150Z,11.70
2022-08-24T23:37:37.294Z,10.75
2022-08-24T23:40:09.325Z,11.18
2022-08-24T23:42:38.402Z,11.43
2022-08-24T23:45:11.142Z,11.35
2022-08-24T23:47:41.477Z,11.88
2022-08-24T23:50:10.899Z,12.25
2022-08-24T23:52:40.840Z,13.27
2022-08-24T23:55:21.058Z,12.43
2022-08-24T23:57:51.466Z,13.07
